Time;durP1;ratioP1;P1;durP2;ratioP2;P2;SDS_P1;SDS_P2;PMS_P1;PMS_P2;Temp;Humidity;BMP_temperature;BMP_pressure;BME280_temperature;BME280_humidity;BME280_pressure;Samples;Min_cycle;Max_cycle;Signal;HPM_P1;HPM_P2
2021/10/26 00:01:41;;;;;;;12.93;6.60;;;6.50;97.30;;;;;;5032470;28;20179;-79
2021/10/26 00:04:08;;;;;;;11.07;6.50;;;6.40;97.30;;;;;;5030712;28;20246;-80
2021/10/26 00:06:34;;;;;;;13.57;6.93;;;6.40;97.30;;;;;;5029758;28;20199;-79
2021/10/26 00:08:59;;;;;;;10.80;7.00;;;6.30;97.30;;;;;;5029838;28;20993;-78
2021/10/26 00:11:25;;;;;;;18.20;8.17;;;6.30;97.30;;;;;;5032171;28;20411;-79
2021/10/26 00:13:50;;;;;;;13.17;7.50;;;6.30;97.30;;;;;;5030271;28;20299;-79
2021/10/26 00:16:16;;;;;;;14.33;7.80;;;6.40;97.30;;;;;;5030124;28;20789;-80
2021/10/26 00:18:41;;;;;;;16.87;7.00;;;6.40;97.30;;;;;;5031509;28;20193;-79
2021/10/26 00:21:07;;;;;;;12.50;7.00;;;6.40;97.30;;;;;;5033131;28;20177;-78
2021/10/26 00:23:33;;;;;;;17.80;8.20;;;6.40;97.30;;;;;;5032676;28;20196;-78
2021/10/26 00:25:58;;;;;;;17.07;7.67;;;6.30;97.30;;;;;;5030866;28;20202;-79
2021/10/26 00:28:24;;;;;;;17.10;7.60;;;6.30;97.30;;;;;;5029554;28;20188;-79
2021/10/26 00:30:50;;;;;;;15.63;7.60;;;6.20;97.30;;;;;;5029589;28;20203;-79
2021/10/26 00:33:15;;;;;;;14.33;7.40;;;6.20;97.30;;;;;;5030807;28;20287;-78
2021/10/26 00:35:41;;;;;;;15.50;7.93;;;6.20;97.30;;;;;;5021263;28;20227;-79
2021/10/26 00:38:06;;;;;;;15.00;7.53;;;6.20;97.30;;;;;;5028691;28;20738;-79
2021/10/26 00:40:32;;;;;;;15.70;7.80;;;6.20;97.30;;;;;;5027153;28;20251;-79
2021/10/26 00:42:58;;;;;;;12.27;7.10;;;6.30;97.30;;;;;;5030064;28;20196;-78
2021/10/26 00:45:23;;;;;;;17.03;8.40;;;6.20;97.30;;;;;;5032065;28;20426;-80
2021/10/26 00:47:49;;;;;;;17.97;7.20;;;6.20;97.30;;;;;;5031035;28;20215;-79
2021/10/26 00:50:15;;;;;;;13.70;6.80;;;6.10;97.30;;;;;;5030988;28;20657;-78
2021/10/26 00:52:43;;;;;;;14.27;6.70;;;6.10;97.30;;;;;;5032133;28;20368;-78
2021/10/26 00:55:09;;;;;;;17.70;6.77;;;6.10;97.30;;;;;;5031590;28;20426;-79
2021/10/26 00:57:35;;;;;;;13.67;7.07;;;6.00;97.30;;;;;;5032430;28;20830;-79
2021/10/26 01:00:00;;;;;;;11.50;6.40;;;6.00;97.30;;;;;;5032534;28;20415;-77
2021/10/26 01:02:26;;;;;;;13.33;7.43;;;5.90;97.30;;;;;;5031516;28;20183;-78
2021/10/26 01:04:51;;;;;;;14.80;7.70;;;5.90;97.30;;;;;;5030557;28;20184;-79
2021/10/26 01:07:17;;;;;;;13.20;7.13;;;5.80;97.30;;;;;;5029929;28;20172;-79
2021/10/26 01:09:44;;;;;;;11.13;6.47;;;5.80;97.30;;;;;;5028915;28;20185;-81
2021/10/26 01:12:10;;;;;;;12.50;7.23;;;5.70;97.30;;;;;;5028399;28;20461;-78
2021/10/26 01:14:37;;;;;;;14.70;7.23;;;5.70;97.30;;;;;;5031999;28;20423;-78
2021/10/26 01:17:08;;;;;;;11.23;6.27;;;5.70;97.30;;;;;;5030937;28;20177;-78
2021/10/26 01:19:46;;;;;;;16.10;7.60;;;5.70;97.30;;;;;;5032002;28;20411;-79
2021/10/26 01:22:14;;;;;;;16.50;7.67;;;5.70;97.30;;;;;;5033246;28;20502;-79
2021/10/26 01:24:39;;;;;;;12.57;7.10;;;5.70;97.30;;;;;;5033102;28;20847;-78
2021/10/26 01:27:05;;;;;;;17.30;6.83;;;5.70;97.30;;;;;;5031840;28;20498;-79
2021/10/26 01:29:31;;;;;;;13.10;6.70;;;5.60;97.30;;;;;;5031401;28;20666;-79
2021/10/26 01:32:00;;;;;;;12.40;6.70;;;5.50;97.30;;;;;;5031146;28;20514;-81
2021/10/26 01:34:25;;;;;;;13.40;6.30;;;5.50;97.30;;;;;;5030827;28;20193;-79
2021/10/26 01:36:51;;;;;;;14.47;6.60;;;5.40;97.30;;;;;;5030576;28;20778;-80
2021/10/26 01:39:17;;;;;;;16.80;6.70;;;5.30;97.30;;;;;;5030720;28;20180;-78
2021/10/26 01:41:43;;;;;;;11.70;7.37;;;5.20;97.30;;;;;;5030792;28;20469;-80
2021/10/26 01:44:08;;;;;;;21.67;8.33;;;5.20;97.30;;;;;;5031714;28;20229;-78
2021/10/26 01:46:34;;;;;;;21.70;7.97;;;5.20;97.30;;;;;;5031786;28;20263;-80
2021/10/26 01:48:59;;;;;;;12.97;6.40;;;5.20;97.30;;;;;;5034728;28;20188;-78
2021/10/26 01:51:25;;;;;;;16.63;7.13;;;5.20;97.30;;;;;;5035283;28;20266;-78
2021/10/26 01:53:50;;;;;;;18.53;7.40;;;5.20;97.30;;;;;;5034846;28;20196;-80
2021/10/26 01:56:16;;;;;;;14.57;6.73;;;5.20;97.30;;;;;;5034228;28;20533;-78
2021/10/26 01:58:41;;;;;;;16.27;7.43;;;5.20;97.30;;;;;;5034042;28;20685;-78
2021/10/26 02:01:07;;;;;;;20.70;7.50;;;5.30;97.30;;;;;;5034024;28;20564;-78
2021/10/26 02:03:32;;;;;;;13.80;7.50;;;5.30;97.30;;;;;;5031682;28;20667;-79
2021/10/26 02:05:58;;;;;;;15.27;7.27;;;5.40;97.30;;;;;;5032130;28;20192;-80
2021/10/26 02:08:23;;;;;;;16.10;8.40;;;5.40;97.30;;;;;;5032893;28;20184;-81
2021/10/26 02:10:49;;;;;;;18.47;7.53;;;5.40;97.30;;;;;;5033155;28;20192;-80
2021/10/26 02:13:14;;;;;;;14.73;6.87;;;5.40;97.30;;;;;;5032295;28;20210;-81
2021/10/26 02:15:40;;;;;;;13.73;7.33;;;5.40;97.30;;;;;;5034071;28;20181;-81
2021/10/26 02:18:05;;;;;;;14.40;9.10;;;5.40;97.30;;;;;;5032256;28;20212;-79
2021/10/26 02:20:31;;;;;;;16.00;6.50;;;5.30;97.30;;;;;;5031304;28;20543;-78
2021/10/26 02:22:56;;;;;;;11.77;6.20;;;5.30;97.30;;;;;;5031191;28;20227;-79
2021/10/26 02:25:22;;;;;;;26.97;7.20;;;5.30;97.30;;;;;;5032524;28;20635;-80
2021/10/26 02:27:47;;;;;;;13.77;6.53;;;5.30;97.30;;;;;;5032539;28;20219;-79
2021/10/26 02:30:13;;;;;;;12.60;6.37;;;5.30;97.30;;;;;;5032346;28;20189;-79
2021/10/26 02:32:39;;;;;;;14.20;7.67;;;5.20;97.30;;;;;;5032370;28;20184;-79
2021/10/26 02:35:05;;;;;;;20.63;8.90;;;5.30;97.30;;;;;;5033255;28;20180;-78
2021/10/26 02:37:30;;;;;;;12.80;6.60;;;5.30;97.30;;;;;;5032192;28;20690;-79
2021/10/26 02:39:56;;;;;;;24.20;7.20;;;5.20;97.30;;;;;;5018431;28;20413;-79
2021/10/26 02:42:22;;;;;;;13.07;6.20;;;5.30;97.30;;;;;;5013967;28;20182;-77
2021/10/26 02:44:47;;;;;;;13.57;7.13;;;5.20;97.30;;;;;;5029587;28;20316;-78
2021/10/26 02:47:13;;;;;;;15.70;7.47;;;5.20;97.30;;;;;;5029819;28;20512;-81
2021/10/26 02:49:38;;;;;;;15.30;7.90;;;5.20;97.30;;;;;;5027576;28;20709;-79
2021/10/26 02:52:04;;;;;;;14.37;7.43;;;5.20;97.30;;;;;;5028061;28;20181;-79
2021/10/26 02:54:30;;;;;;;18.57;7.60;;;5.30;97.30;;;;;;5014319;28;20671;-80
2021/10/26 02:56:56;;;;;;;16.43;7.63;;;5.30;97.30;;;;;;5028834;28;20181;-79
2021/10/26 02:59:24;;;;;;;10.47;6.10;;;5.30;97.30;;;;;;5027572;28;20779;-79
2021/10/26 03:01:49;;;;;;;14.93;7.57;;;5.30;97.30;;;;;;5028896;28;20170;-79
2021/10/26 03:04:15;;;;;;;16.33;7.33;;;5.30;97.30;;;;;;5028341;28;20474;-79
2021/10/26 03:06:43;;;;;;;14.50;6.70;;;5.30;97.30;;;;;;5027580;28;20219;-79
2021/10/26 03:09:09;;;;;;;13.17;7.60;;;5.30;97.30;;;;;;5029654;28;20199;-78
2021/10/26 03:11:34;;;;;;;13.30;6.30;;;5.30;97.30;;;;;;5029483;28;20563;-78
2021/10/26 03:14:00;;;;;;;13.90;6.87;;;5.40;97.30;;;;;;5014286;28;20611;-79
2021/10/26 03:16:25;;;;;;;15.77;7.10;;;5.40;97.30;;;;;;5013799;28;20173;-78
2021/10/26 03:18:51;;;;;;;12.83;6.37;;;5.40;97.30;;;;;;5030874;28;20324;-79
2021/10/26 03:21:16;;;;;;;11.37;6.80;;;5.40;97.30;;;;;;5030506;28;20639;-78
2021/10/26 03:23:42;;;;;;;15.67;7.10;;;5.50;97.30;;;;;;5029979;28;20197;-79
2021/10/26 03:26:07;;;;;;;15.50;6.87;;;5.50;97.30;;;;;;5029780;28;20275;-78
2021/10/26 03:28:33;;;;;;;13.17;7.33;;;5.50;97.30;;;;;;5030112;28;20188;-78
2021/10/26 03:31:01;;;;;;;16.90;7.60;;;5.60;97.30;;;;;;5012179;28;20223;-76
2021/10/26 03:33:27;;;;;;;18.40;7.80;;;5.60;97.30;;;;;;5013589;28;20193;-77
2021/10/26 03:35:54;;;;;;;15.23;7.27;;;5.60;97.30;;;;;;5028865;28;20799;-79
2021/10/26 03:38:21;;;;;;;17.50;6.87;;;5.70;97.30;;;;;;5028592;28;20404;-80
2021/10/26 03:40:46;;;;;;;15.37;7.63;;;5.70;97.30;;;;;;5030307;28;20419;-78
2021/10/26 03:43:12;;;;;;;13.30;7.30;;;5.80;97.30;;;;;;5014679;28;20448;-79
2021/10/26 03:45:38;;;;;;;12.80;6.83;;;5.80;97.30;;;;;;5014327;28;20260;-78
2021/10/26 03:48:04;;;;;;;15.97;7.07;;;5.90;97.30;;;;;;5013329;28;20192;-79
2021/10/26 03:50:30;;;;;;;11.10;7.20;;;5.90;97.30;;;;;;5029863;28;20420;-79
2021/10/26 03:52:55;;;;;;;12.50;7.30;;;6.00;97.30;;;;;;5028536;28;20225;-79
2021/10/26 03:55:21;;;;;;;13.67;7.27;;;6.00;97.30;;;;;;5028452;28;20177;-81
2021/10/26 03:57:47;;;;;;;13.70;7.57;;;6.00;97.30;;;;;;5013268;28;20215;-79
2021/10/26 04:00:13;;;;;;;13.33;6.93;;;6.10;97.30;;;;;;5013295;28;20200;-79
2021/10/26 04:02:42;;;;;;;18.50;7.73;;;6.10;97.30;;;;;;5032615;28;20419;-79
2021/10/26 04:05:22;;;;;;;16.27;6.53;;;6.10;97.30;;;;;;5033205;28;20573;-80
2021/10/26 04:07:54;;;;;;;13.63;6.97;;;6.10;97.30;;;;;;5033021;28;20430;-79
2021/10/26 04:10:32;;;;;;;11.93;6.77;;;6.10;97.30;;;;;;5033307;28;20407;-79
2021/10/26 04:12:59;;;;;;;12.90;7.27;;;6.10;97.30;;;;;;5032303;28;20518;-78
2021/10/26 04:15:24;;;;;;;15.37;7.43;;;6.10;97.30;;;;;;5029399;28;20446;-79
2021/10/26 04:17:50;;;;;;;12.23;7.50;;;6.20;97.30;;;;;;5015809;28;20473;-80
2021/10/26 04:20:15;;;;;;;13.17;6.93;;;6.20;97.30;;;;;;5031452;28;20175;-79
2021/10/26 04:22:41;;;;;;;13.70;7.60;;;6.30;97.30;;;;;;5022920;28;20175;-79
2021/10/26 04:25:07;;;;;;;15.10;7.50;;;6.30;97.30;;;;;;5020338;28;20189;-78
2021/10/26 04:27:32;;;;;;;13.23;7.57;;;6.30;97.30;;;;;;5023824;28;20242;-78
2021/10/26 04:29:58;;;;;;;16.97;7.80;;;6.30;97.30;;;;;;5028777;28;20177;-78
2021/10/26 04:32:23;;;;;;;24.70;7.80;;;6.30;97.30;;;;;;5023406;28;20183;-79
2021/10/26 04:34:49;;;;;;;14.73;7.70;;;6.40;97.30;;;;;;5019493;28;20200;-80
2021/10/26 04:37:14;;;;;;;18.47;8.97;;;6.40;97.30;;;;;;5017033;28;20667;-80
2021/10/26 04:39:40;;;;;;;18.13;8.83;;;6.50;97.30;;;;;;5018649;28;20173;-81
2021/10/26 04:42:08;;;;;;;15.70;8.53;;;6.70;97.30;;;;;;5018222;28;20177;-79
2021/10/26 04:44:34;;;;;;;18.97;8.10;;;6.70;97.30;;;;;;5019478;28;20749;-79
2021/10/26 04:47:00;;;;;;;20.07;9.50;;;6.90;97.30;;;;;;5019958;28;20459;-80
2021/10/26 04:49:26;;;;;;;21.43;9.60;;;7.00;97.30;;;;;;5015106;28;20856;-78
2021/10/26 04:51:51;;;;;;;19.40;9.57;;;7.10;97.30;;;;;;5010069;28;20169;-79
2021/10/26 04:54:17;;;;;;;22.20;9.20;;;7.20;97.30;;;;;;5009856;28;20185;-80
2021/10/26 04:56:43;;;;;;;22.93;9.13;;;7.30;97.30;;;;;;5017195;28;20250;-77
2021/10/26 04:59:08;;;;;;;23.87;8.53;;;7.30;97.30;;;;;;5013030;28;20308;-78
2021/10/26 05:01:34;;;;;;;16.10;8.20;;;7.50;97.30;;;;;;5011242;28;20662;-78
2021/10/26 05:03:59;;;;;;;17.40;8.90;;;7.50;97.30;;;;;;5027809;28;20284;-78
2021/10/26 05:06:25;;;;;;;23.73;9.17;;;7.60;97.30;;;;;;5011098;28;20605;-78
2021/10/26 05:08:52;;;;;;;17.00;8.20;;;7.70;97.30;;;;;;5011803;28;20173;-77
2021/10/26 05:11:23;;;;;;;18.10;8.30;;;7.70;97.30;;;;;;5012427;28;20251;-78
2021/10/26 05:13:49;;;;;;;17.43;8.87;;;7.80;97.30;;;;;;5012961;28;20435;-78
2021/10/26 05:16:15;;;;;;;16.00;7.80;;;7.90;97.30;;;;;;5011654;28;20499;-79
2021/10/26 05:18:43;;;;;;;19.43;8.20;;;7.90;97.30;;;;;;5012589;28;20547;-78
2021/10/26 05:21:13;;;;;;;16.67;8.10;;;8.00;97.30;;;;;;5027638;28;20257;-78
2021/10/26 05:23:44;;;;;;;16.47;8.20;;;8.00;97.30;;;;;;5013937;28;20788;-79
2021/10/26 05:26:10;;;;;;;19.70;9.13;;;8.10;97.30;;;;;;5014661;28;20643;-79
2021/10/26 05:28:35;;;;;;;20.23;8.17;;;8.10;97.30;;;;;;5015825;28;20404;-80
2021/10/26 05:31:02;;;;;;;17.83;8.80;;;8.10;97.30;;;;;;5017407;28;20364;-80
2021/10/26 05:33:28;;;;;;;18.90;8.40;;;8.10;97.30;;;;;;5017187;28;20217;-79
2021/10/26 05:35:53;;;;;;;19.47;9.20;;;8.10;97.30;;;;;;5032250;28;20501;-79
2021/10/26 05:38:19;;;;;;;13.07;8.10;;;8.10;97.30;;;;;;5015825;28;20204;-78
2021/10/26 05:40:45;;;;;;;19.53;8.90;;;8.20;97.30;;;;;;5016932;28;20173;-79
2021/10/26 05:43:10;;;;;;;16.37;9.00;;;8.20;97.30;;;;;;5016176;28;20773;-78
2021/10/26 05:45:36;;;;;;;18.00;8.67;;;8.20;97.30;;;;;;5030954;28;20173;-79
2021/10/26 05:48:01;;;;;;;13.23;7.77;;;8.20;97.30;;;;;;5014585;28;20177;-80
2021/10/26 05:50:27;;;;;;;18.43;8.30;;;8.20;97.30;;;;;;5014381;28;20624;-78
2021/10/26 05:52:52;;;;;;;15.40;8.17;;;8.30;97.30;;;;;;5031378;28;20627;-78
2021/10/26 05:55:18;;;;;;;19.93;9.33;;;8.30;97.30;;;;;;5015789;28;20173;-78
2021/10/26 05:57:43;;;;;;;21.23;9.27;;;8.20;97.30;;;;;;5016522;28;20211;-79
2021/10/26 06:00:09;;;;;;;16.53;8.43;;;8.20;97.30;;;;;;5015266;28;20170;-79
2021/10/26 06:02:35;;;;;;;25.97;9.40;;;8.20;97.30;;;;;;5014850;28;20169;-79
2021/10/26 06:05:00;;;;;;;15.63;8.57;;;8.30;97.30;;;;;;5014959;28;20976;-79
2021/10/26 06:07:26;;;;;;;18.17;8.97;;;8.30;97.30;;;;;;5015518;28;20185;-79
2021/10/26 06:09:51;;;;;;;24.50;8.67;;;8.30;97.30;;;;;;5014209;28;20302;-79
2021/10/26 06:12:22;;;;;;;19.80;9.70;;;8.30;97.30;;;;;;5014267;28;20215;-80
2021/10/26 06:14:48;;;;;;;17.67;8.13;;;8.30;97.30;;;;;;5013791;28;20216;-78
2021/10/26 06:17:13;;;;;;;11.97;7.80;;;8.30;97.30;;;;;;5015221;28;20479;-80
2021/10/26 06:19:39;;;;;;;13.10;8.30;;;8.30;97.30;;;;;;5031673;28;20176;-78
2021/10/26 06:22:04;;;;;;;17.07;8.07;;;8.30;97.30;;;;;;5024845;28;20164;-79
2021/10/26 06:24:30;;;;;;;23.10;8.40;;;8.30;97.30;;;;;;5034265;28;20220;-82
2021/10/26 06:26:55;;;;;;;21.70;9.23;;;8.30;97.30;;;;;;5034675;28;20180;-79
2021/10/26 06:29:21;;;;;;;13.23;8.23;;;8.30;97.30;;;;;;5034311;28;20187;-79
2021/10/26 06:31:46;;;;;;;14.97;8.07;;;8.30;97.30;;;;;;5049847;28;20275;-79
2021/10/26 06:34:12;;;;;;;18.40;8.93;;;8.40;97.30;;;;;;5032318;28;20239;-79
2021/10/26 06:36:38;;;;;;;22.50;9.60;;;8.40;97.30;;;;;;5033680;28;20172;-79
2021/10/26 06:39:04;;;;;;;18.97;9.63;;;8.40;97.30;;;;;;5050394;28;20200;-79
2021/10/26 06:41:30;;;;;;;21.27;8.77;;;8.40;97.30;;;;;;5034813;28;20200;-78
2021/10/26 06:43:55;;;;;;;16.10;8.13;;;8.40;97.30;;;;;;5035352;28;20466;-79
2021/10/26 06:46:21;;;;;;;20.37;8.97;;;8.50;97.30;;;;;;5034213;28;20687;-79
2021/10/26 06:48:47;;;;;;;20.77;8.77;;;8.50;97.30;;;;;;5035708;28;20631;-78
2021/10/26 06:51:12;;;;;;;21.93;10.10;;;8.60;97.30;;;;;;5033302;28;20181;-79
2021/10/26 06:53:39;;;;;;;20.47;9.53;;;8.60;97.30;;;;;;5033095;28;20435;-79
2021/10/26 06:56:09;;;;;;;21.13;9.47;;;8.70;97.30;;;;;;5033009;28;20565;-78
2021/10/26 06:58:35;;;;;;;23.13;10.40;;;8.80;97.30;;;;;;5032817;28;20878;-79
2021/10/26 07:01:02;;;;;;;21.90;10.07;;;8.80;97.30;;;;;;5033787;28;20464;-78
2021/10/26 07:03:28;;;;;;;20.73;9.30;;;8.90;97.30;;;;;;5034208;28;20676;-79
2021/10/26 07:05:54;;;;;;;16.30;9.23;;;8.90;97.30;;;;;;5034125;28;20407;-79
2021/10/26 07:08:19;;;;;;;22.50;9.80;;;8.90;97.30;;;;;;5050440;28;20990;-79
2021/10/26 07:10:45;;;;;;;19.03;8.40;;;9.00;97.30;;;;;;5035283;28;20177;-77
2021/10/26 07:13:10;;;;;;;21.53;10.17;;;9.10;97.30;;;;;;5033702;28;20201;-78
2021/10/26 07:15:36;;;;;;;20.77;9.10;;;9.10;97.30;;;;;;5032877;28;20180;-79
2021/10/26 07:18:02;;;;;;;20.23;9.77;;;9.20;97.30;;;;;;5033157;28;20189;-79
2021/10/26 07:20:28;;;;;;;18.90;9.60;;;9.30;97.30;;;;;;5049413;28;20176;-79
2021/10/26 07:22:55;;;;;;;19.50;9.77;;;9.40;97.30;;;;;;5031927;28;20431;-80
2021/10/26 07:25:22;;;;;;;23.07;9.73;;;9.50;97.30;;;;;;5031224;28;20172;-79
2021/10/26 07:27:51;;;;;;;21.50;10.97;;;9.50;97.30;;;;;;5033766;28;20416;-81
2021/10/26 07:30:17;;;;;;;18.70;10.37;;;9.60;97.30;;;;;;5033509;28;20780;-79
2021/10/26 07:32:43;;;;;;;26.90;10.40;;;9.70;97.30;;;;;;5033461;28;20415;-80
2021/10/26 07:35:09;;;;;;;18.53;9.03;;;9.80;97.30;;;;;;5033640;28;20693;-79
2021/10/26 07:37:39;;;;;;;22.80;9.77;;;9.90;97.30;;;;;;5033033;28;20443;-80
2021/10/26 07:40:05;;;;;;;25.70;9.53;;;10.00;97.30;;;;;;5049508;28;20219;-79
2021/10/26 07:42:31;;;;;;;24.40;10.07;;;10.00;97.30;;;;;;5033655;28;20420;-79
2021/10/26 07:44:56;;;;;;;25.43;10.77;;;10.10;97.30;;;;;;5032942;28;20459;-79
2021/10/26 07:47:23;;;;;;;20.13;9.30;;;10.20;97.30;;;;;;5033216;28;20263;-79
2021/10/26 07:49:50;;;;;;;22.63;10.83;;;10.20;97.30;;;;;;5033469;28;20657;-79
2021/10/26 07:52:16;;;;;;;26.70;10.10;;;10.30;97.30;;;;;;5033374;28;20776;-79
2021/10/26 07:54:50;;;;;;;20.60;9.80;;;10.40;97.30;;;;;;5032786;28;21028;-79
2021/10/26 07:57:16;;;;;;;22.03;8.93;;;10.40;97.30;;;;;;5033023;28;20476;-78
2021/10/26 07:59:43;;;;;;;18.47;9.67;;;10.50;97.30;;;;;;5032954;28;20419;-79
2021/10/26 08:02:10;;;;;;;20.60;10.30;;;10.60;97.30;;;;;;5032014;28;20415;-79
2021/10/26 08:04:36;;;;;;;21.40;10.17;;;10.70;97.30;;;;;;5031818;28;20438;-79
2021/10/26 08:07:02;;;;;;;21.90;10.40;;;10.70;97.30;;;;;;5031828;28;20410;-78
2021/10/26 08:09:27;;;;;;;18.50;9.87;;;10.70;97.30;;;;;;5031871;28;20411;-79
2021/10/26 08:11:53;;;;;;;18.17;9.83;;;10.80;97.30;;;;;;5034320;28;20168;-80
2021/10/26 08:14:18;;;;;;;20.00;10.43;;;10.80;97.30;;;;;;5032110;28;20204;-76
2021/10/26 08:16:44;;;;;;;23.27;11.10;;;10.80;97.30;;;;;;5030732;28;20267;-80
2021/10/26 08:19:09;;;;;;;20.80;9.40;;;10.90;97.30;;;;;;5030635;28;20295;-79
2021/10/26 08:21:36;;;;;;;18.80;9.83;;;10.90;97.30;;;;;;5030463;28;20532;-80
2021/10/26 08:24:01;;;;;;;20.97;8.93;;;11.00;97.30;;;;;;5030112;28;20686;-79
2021/10/26 08:26:42;;;;;;;22.83;10.80;;;11.00;97.30;;;;;;5027859;28;20461;-79
2021/10/26 08:29:14;;;;;;;23.90;11.70;;;11.00;97.30;;;;;;5043580;28;20557;-79
2021/10/26 08:32:08;;;;;;;25.70;10.87;;;11.10;97.30;;;;;;5029508;28;20855;-79
2021/10/26 08:34:51;;;;;;;26.33;10.50;;;11.10;97.30;;;;;;5031075;28;21023;-81
2021/10/26 08:37:17;;;;;;;18.23;10.07;;;11.20;97.30;;;;;;5030405;28;20506;-81
2021/10/26 08:39:46;;;;;;;24.10;9.10;;;11.20;97.30;;;;;;5029949;28;20929;-81
2021/10/26 08:42:16;;;;;;;17.80;9.57;;;11.30;97.30;;;;;;5037631;28;20419;-79
2021/10/26 08:44:42;;;;;;;21.43;9.60;;;11.40;97.30;;;;;;5029831;28;20467;-80
2021/10/26 08:47:09;;;;;;;20.20;9.60;;;11.50;97.30;;;;;;5029377;28;20430;-79
2021/10/26 08:49:34;;;;;;;16.90;9.20;;;11.60;97.30;;;;;;5028912;28;20415;-79
2021/10/26 08:52:07;;;;;;;22.53;10.17;;;11.70;97.30;;;;;;5029456;28;20425;-80
2021/10/26 08:54:33;;;;;;;17.30;9.17;;;11.80;97.30;;;;;;5028826;28;20199;-79
2021/10/26 08:56:59;;;;;;;17.17;9.20;;;11.90;97.30;;;;;;5030401;28;20857;-79
2021/10/26 08:59:25;;;;;;;18.77;8.47;;;11.90;97.30;;;;;;5034435;28;20487;-80
2021/10/26 09:01:58;;;;;;;17.03;8.63;;;12.00;97.30;;;;;;5034263;28;20172;-80
2021/10/26 09:04:36;;;;;;;17.17;8.90;;;12.00;97.30;;;;;;5033565;28;20279;-80
2021/10/26 09:07:06;;;;;;;17.83;8.67;;;12.10;97.30;;;;;;5034146;28;20422;-79
2021/10/26 09:09:39;;;;;;;18.17;8.73;;;12.10;97.30;;;;;;5033716;28;20419;-79
2021/10/26 09:17:53;;;;;;;14.47;8.37;;;12.60;97.30;;;;;;5034163;28;20457;-79
2021/10/26 09:20:22;;;;;;;16.97;8.33;;;12.60;97.30;;;;;;5035614;28;20414;-79
2021/10/26 09:22:54;;;;;;;14.97;8.20;;;12.60;97.30;;;;;;5037025;28;20188;-78
2021/10/26 09:25:20;;;;;;;16.57;8.73;;;12.70;97.30;;;;;;5036211;28;20411;-79
2021/10/26 09:27:48;;;;;;;13.53;7.60;;;12.80;97.30;;;;;;5035711;28;20909;-80
2021/10/26 09:30:18;;;;;;;19.63;8.17;;;13.00;97.30;;;;;;5035968;28;20481;-80
2021/10/26 09:32:47;;;;;;;15.33;7.47;;;13.10;97.30;;;;;;5035715;28;20824;-80
2021/10/26 09:35:18;;;;;;;20.40;7.30;;;13.20;97.30;;;;;;5036013;28;20399;-79
2021/10/26 09:37:48;;;;;;;15.30;7.30;;;13.30;97.30;;;;;;5034525;28;20461;-80
2021/10/26 09:40:14;;;;;;;21.53;8.40;;;13.40;97.30;;;;;;5034793;28;20422;-80
2021/10/26 09:42:50;;;;;;;17.00;7.83;;;13.40;97.30;;;;;;5018823;28;20855;-81
2021/10/26 09:45:25;;;;;;;14.57;7.63;;;13.20;97.30;;;;;;5016386;28;20812;-79
2021/10/26 09:48:00;;;;;;;14.87;7.30;;;13.10;97.30;;;;;;5016129;28;20442;-79
2021/10/26 09:50:30;;;;;;;13.60;6.60;;;13.00;97.30;;;;;;5016032;28;20438;-79
2021/10/26 09:53:04;;;;;;;12.37;6.43;;;13.00;97.30;;;;;;5015687;28;20981;-79
2021/10/26 09:55:36;;;;;;;11.30;6.33;;;13.00;97.30;;;;;;5017200;28;20431;-79
2021/10/26 09:58:05;;;;;;;14.20;6.10;;;12.90;97.30;;;;;;5014603;28;20562;-80
2021/10/26 10:00:38;;;;;;;20.50;7.10;;;12.90;97.30;;;;;;5014964;28;20416;-79
2021/10/26 10:03:09;;;;;;;11.70;6.03;;;13.00;97.30;;;;;;5014271;28;20471;-79
2021/10/26 10:05:52;;;;;;;10.63;6.33;;;13.00;97.30;;;;;;5014463;28;20765;-79
2021/10/26 10:08:28;;;;;;;12.67;7.30;;;13.00;97.30;;;;;;5015214;28;20794;-78
2021/10/26 10:11:14;;;;;;;13.47;6.60;;;13.00;97.30;;;;;;5015259;28;20437;-79
2021/10/26 10:13:50;;;;;;;16.43;7.30;;;13.10;97.30;;;;;;5015162;28;20467;-80
2021/10/26 10:16:20;;;;;;;13.97;6.27;;;13.10;97.30;;;;;;5015508;28;20426;-79
2021/10/26 10:18:47;;;;;;;12.60;7.13;;;13.30;97.30;;;;;;5013887;28;20468;-81
2021/10/26 10:21:25;;;;;;;16.43;7.30;;;13.30;97.30;;;;;;5012938;28;20419;-79
2021/10/26 10:23:52;;;;;;;13.80;7.00;;;13.30;97.30;;;;;;5030325;28;20447;-80
2021/10/26 10:26:22;;;;;;;12.33;7.00;;;13.40;97.30;;;;;;5048440;28;20785;-79
2021/10/26 10:28:49;;;;;;;13.47;7.30;;;13.40;97.30;;;;;;5031632;28;20492;-80
2021/10/26 10:31:19;;;;;;;15.13;6.77;;;13.50;97.30;;;;;;5049120;28;20411;-80
2021/10/26 10:33:45;;;;;;;12.27;6.00;;;13.60;97.30;;;;;;5049675;28;20447;-79
2021/10/26 10:36:15;;;;;;;12.10;6.13;;;13.70;97.30;;;;;;5035323;28;20818;-81
2021/10/26 10:38:41;;;;;;;11.67;5.93;;;13.70;97.30;;;;;;5012545;28;20562;-81
2021/10/26 10:41:24;;;;;;;11.20;5.90;;;13.70;97.30;;;;;;5012914;28;20419;-80
2021/10/26 10:43:57;;;;;;;12.97;6.00;;;13.80;97.30;;;;;;4996845;28;20468;-81
2021/10/26 10:46:42;;;;;;;9.93;5.80;;;13.80;97.30;;;;;;5014751;28;20415;-79
2021/10/26 10:49:20;;;;;;;13.87;6.50;;;13.90;97.30;;;;;;5013745;28;20777;-80
2021/10/26 10:52:15;;;;;;;11.57;6.23;;;13.90;97.30;;;;;;5013994;28;20926;-77
2021/10/26 10:54:54;;;;;;;12.07;5.80;;;14.00;97.30;;;;;;5013588;28;20448;-80
2021/10/26 10:57:34;;;;;;;12.90;6.43;;;14.20;97.30;;;;;;5015010;28;20412;-77
2021/10/26 11:00:04;;;;;;;9.83;5.30;;;14.30;97.30;;;;;;5015603;28;20409;-79
2021/10/26 11:02:48;;;;;;;13.97;6.10;;;14.40;97.30;;;;;;5014480;28;20420;-80
2021/10/26 11:05:42;;;;;;;14.77;6.67;;;14.50;97.30;;;;;;5014723;28;20420;-80
2021/10/26 11:08:12;;;;;;;10.40;5.40;;;14.50;97.30;;;;;;5015948;28;20395;-79
2021/10/26 11:10:50;;;;;;;11.80;6.40;;;14.60;97.30;;;;;;5015209;28;20948;-79
2021/10/26 11:13:37;;;;;;;10.47;6.23;;;14.60;97.30;;;;;;5014762;28;20419;-79
2021/10/26 11:16:09;;;;;;;18.97;6.00;;;14.60;97.30;;;;;;5014827;28;20482;-79
2021/10/26 11:18:46;;;;;;;11.50;5.20;;;14.70;97.30;;;;;;5013279;28;20455;-80
2021/10/26 11:21:21;;;;;;;9.60;5.20;;;14.60;97.30;;;;;;5015118;28;20400;-78
2021/10/26 11:23:48;;;;;;;10.80;6.30;;;14.50;97.30;;;;;;5014529;28;20436;-79
2021/10/26 11:26:43;;;;;;;9.20;5.80;;;14.40;97.30;;;;;;5013815;28;20543;-80
2021/10/26 11:29:12;;;;;;;8.77;4.80;;;14.40;97.30;;;;;;5004784;28;20443;-80
2021/10/26 11:31:45;;;;;;;9.13;5.10;;;14.40;97.30;;;;;;5012935;28;20426;-79
2021/10/26 11:34:32;;;;;;;11.37;4.60;;;14.50;97.30;;;;;;5011599;28;21284;-80
2021/10/26 11:37:03;;;;;;;10.43;4.67;;;14.50;97.30;;;;;;5011344;28;20883;-80
2021/10/26 11:39:29;;;;;;;9.27;4.63;;;14.40;97.30;;;;;;5011444;28;20464;-80
2021/10/26 11:41:58;;;;;;;8.53;4.10;;;14.50;97.30;;;;;;5020879;28;20442;-80
2021/10/26 11:44:23;;;;;;;10.20;4.30;;;14.50;97.30;;;;;;5046439;28;20473;-81
2021/10/26 11:46:50;;;;;;;9.30;4.63;;;14.60;97.30;;;;;;5030190;28;20792;-81
2021/10/26 11:49:22;;;;;;;9.23;4.33;;;14.70;97.30;;;;;;5031843;28;20181;-80
2021/10/26 11:51:59;;;;;;;7.83;4.33;;;14.80;97.30;;;;;;5032694;28;20937;-80
2021/10/26 11:54:30;;;;;;;5.73;3.57;;;14.90;97.30;;;;;;5033331;28;20565;-80
2021/10/26 11:57:10;;;;;;;8.90;3.60;;;15.00;97.30;;;;;;5033495;28;20841;-78
2021/10/26 11:59:38;;;;;;;11.37;4.70;;;15.20;97.30;;;;;;5033511;28;20473;-80
2021/10/26 12:02:04;;;;;;;6.37;4.40;;;15.30;97.30;;;;;;5033003;28;20823;-79
2021/10/26 12:04:38;;;;;;;9.33;3.90;;;15.20;97.30;;;;;;5032351;28;20431;-80
2021/10/26 12:07:03;;;;;;;7.00;4.00;;;15.10;97.30;;;;;;5034210;28;20157;-80
2021/10/26 12:09:40;;;;;;;6.03;3.53;;;15.00;97.30;;;;;;5033801;28;20423;-79
2021/10/26 12:12:09;;;;;;;8.13;4.43;;;14.80;97.30;;;;;;5033686;28;20619;-81
2021/10/26 12:14:40;;;;;;;7.90;3.63;;;14.70;97.30;;;;;;5033631;28;20435;-79
2021/10/26 12:17:18;;;;;;;7.33;4.20;;;14.50;97.30;;;;;;5033892;28;20411;-80
2021/10/26 12:19:48;;;;;;;9.10;3.80;;;14.50;97.30;;;;;;5032987;28;20426;-78
2021/10/26 12:22:24;;;;;;;7.37;4.07;;;14.50;97.30;;;;;;5047385;28;20463;-80
2021/10/26 12:25:06;;;;;;;4.13;3.40;;;14.50;97.30;;;;;;5030242;28;20435;-80
2021/10/26 12:27:36;;;;;;;6.57;4.00;;;14.40;97.30;;;;;;5029619;28;20477;-79
2021/10/26 12:30:20;;;;;;;6.30;3.47;;;14.40;97.30;;;;;;5029906;28;20412;-80
2021/10/26 12:33:08;;;;;;;7.40;4.10;;;14.40;97.30;;;;;;5026210;28;20420;-81
2021/10/26 12:35:47;;;;;;;8.80;5.00;;;14.30;97.30;;;;;;5031144;28;20410;-78
2021/10/26 12:38:29;;;;;;;10.63;4.47;;;14.40;97.30;;;;;;5048989;28;20952;-79
2021/10/26 12:40:57;;;;;;;8.07;3.80;;;14.60;97.30;;;;;;5033732;28;20384;-79
2021/10/26 12:43:27;;;;;;;5.87;4.03;;;15.00;97.30;;;;;;5032530;28;20459;-80
2021/10/26 12:45:57;;;;;;;5.50;3.90;;;15.20;97.30;;;;;;5031044;28;20415;-80
2021/10/26 12:48:31;;;;;;;7.03;4.37;;;15.20;97.30;;;;;;5029863;28;20407;-80
2021/10/26 12:51:01;;;;;;;6.93;4.63;;;15.40;97.30;;;;;;5030220;28;20423;-79
2021/10/26 12:53:33;;;;;;;5.63;3.50;;;15.40;97.30;;;;;;5030764;28;20427;-80
2021/10/26 12:56:19;;;;;;;13.60;4.47;;;15.20;97.30;;;;;;5031841;28;20435;-79